Hovedside
METAR-TAF:

METAR-TAF

Lufthavner :

Florø lufthavn

Florø, Norge

breddegrad: 61-35N, lengdegrad: 005-02E, høyde over havet: 0 m

Gjeldene værobservasjon

Denne rapporten ble laget for 29 minutter siden, klokken 16:20 UTC
Vind 6 kt fra Øst-nordøst
Temperatur 2°C
Luftfuktighet 87%
Trykk 1028 hPa
Sikt 10 km eller mer
ingen skyer under 1500 m og ingen bygeskyer

METAR: ENFL 201620Z 07006KT CAVOK 02/M00 Q1028

Tid: 17:49 (16:49 UTC)

Varsel

Denne rapporten ble laget for 2 timer og 49 minutter siden, klokken 14:00 UTC
Varsel gyldig fra 20. klokken 15 UTC til 20. klokken 21 UTC
Vind 5 kt fra Øst-sørøst
Sikt 10 km eller mer
Få skyer i en høyde av 1000 ft

TAF: ENFL 201400Z 2015/2021 11005KT 9999 FEW010

Værobservasjoner og værvarsel for over 4000 flyplasser (METAR- og TAF-rapporter).

Tilgjengelige stasjoner er representert av de røde og gule prikkene på kartet.

Hold musepekeren over prikken for å se navnet på stasjonen.

Klikk så for å se værobservasjoner og -varsler.

For å forandre kartet kan du klikke på den grønne knappen med svart kryss for å zoome inn, på den grønne knappen med strek for å zoome ut, eller på de grønne pilene for å se tilstøtende kart.


METAR-TAF: